createdAt,value
2018-12-05T00:02:06.702Z,2.50
2018-12-05T00:04:34.409Z,1.70
2018-12-05T00:07:02.419Z,2.83
2018-12-05T00:09:30.340Z,2.00
2018-12-05T00:11:57.857Z,2.90
2018-12-05T00:14:26.031Z,3.37
2018-12-05T00:16:53.560Z,3.27
2018-12-05T00:19:21.356Z,3.20
2018-12-05T00:21:48.899Z,3.67
2018-12-05T00:24:16.942Z,2.50
2018-12-05T00:26:44.460Z,3.40
2018-12-05T00:29:13.487Z,2.83
2018-12-05T00:31:41.003Z,3.40
2018-12-05T00:34:08.997Z,3.10
2018-12-05T00:36:36.535Z,3.40
2018-12-05T00:39:07.587Z,3.17
2018-12-05T00:41:35.125Z,3.27
2018-12-05T00:44:03.115Z,2.57
2018-12-05T00:46:30.720Z,2.20
2018-12-05T00:48:58.869Z,3.47
2018-12-05T00:51:26.393Z,2.73
2018-12-05T00:53:54.411Z,2.70
2018-12-05T00:56:21.959Z,1.80
2018-12-05T00:58:49.713Z,2.23
2018-12-05T01:01:17.248Z,2.07
2018-12-05T01:03:44.987Z,3.10
2018-12-05T01:06:13.066Z,2.93
2018-12-05T01:08:40.984Z,2.40
2018-12-05T01:11:08.521Z,2.70
2018-12-05T01:13:36.674Z,2.90
2018-12-05T01:16:04.205Z,2.23
2018-12-05T01:18:32.047Z,2.40
2018-12-05T01:20:59.579Z,2.80
2018-12-05T01:23:27.747Z,2.70
2018-12-05T01:25:55.275Z,2.57
2018-12-05T01:28:23.263Z,2.57
2018-12-05T01:30:50.785Z,2.77
2018-12-05T01:33:18.448Z,3.03
2018-12-05T01:35:45.975Z,2.40
2018-12-05T01:38:14.135Z,2.73
2018-12-05T01:40:41.659Z,2.70
2018-12-05T01:43:09.611Z,3.00
2018-12-05T01:45:37.397Z,2.83
2018-12-05T01:48:05.371Z,3.10
2018-12-05T01:50:32.895Z,3.10
2018-12-05T01:53:00.725Z,2.30
2018-12-05T01:55:30.215Z,3.10
2018-12-05T01:57:58.301Z,3.67
2018-12-05T02:00:25.831Z,4.03
2018-12-05T02:02:53.508Z,2.70
2018-12-05T02:05:22.896Z,3.20
2018-12-05T02:07:50.836Z,4.00
2018-12-05T02:10:18.371Z,5.30
2018-12-05T02:12:46.325Z,2.53
2018-12-05T02:15:13.933Z,4.00
2018-12-05T02:17:42.682Z,2.10
2018-12-05T02:20:10.298Z,3.13
2018-12-05T02:22:38.619Z,2.07
2018-12-05T02:25:06.241Z,2.87
2018-12-05T02:27:34.515Z,2.80
2018-12-05T02:30:02.138Z,3.50
2018-12-05T02:32:29.868Z,2.87
2018-12-05T02:34:57.412Z,2.33
2018-12-05T02:37:25.321Z,3.70
2018-12-05T02:39:52.954Z,2.97
2018-12-05T02:42:20.745Z,2.70
2018-12-05T02:44:48.272Z,2.53
2018-12-05T02:47:16.463Z,3.67
2018-12-05T02:49:43.997Z,2.70
2018-12-05T02:52:12.010Z,2.70
2018-12-05T02:54:39.539Z,2.80
2018-12-05T02:57:07.304Z,2.67
2018-12-05T02:59:34.909Z,2.87
2018-12-05T03:02:02.645Z,3.57
2018-12-05T03:04:30.167Z,2.97
2018-12-05T03:06:58.569Z,3.23
2018-12-05T03:09:26.105Z,3.37
2018-12-05T03:11:54.509Z,2.90
2018-12-05T03:14:22.544Z,3.07
2018-12-05T03:16:50.510Z,3.33
2018-12-05T03:19:18.061Z,2.80
2018-12-05T03:21:46.268Z,3.83
2018-12-05T03:24:13.803Z,3.20
2018-12-05T03:26:42.118Z,2.90
2018-12-05T03:29:09.644Z,3.20
2018-12-05T03:31:37.779Z,2.70
2018-12-05T03:34:05.321Z,3.30
2018-12-05T03:36:33.053Z,2.90
2018-12-05T03:39:01.009Z,2.83
2018-12-05T03:41:29.315Z,3.27
2018-12-05T03:43:57.735Z,2.80
2018-12-05T03:46:25.461Z,3.57
2018-12-05T03:48:52.984Z,3.10
2018-12-05T03:51:20.785Z,2.60
2018-12-05T03:53:48.312Z,3.00
2018-12-05T03:56:16.310Z,4.20
2018-12-05T03:58:44.172Z,3.40
2018-12-05T04:01:11.724Z,3.17
2018-12-05T04:03:39.245Z,2.37
2018-12-05T04:06:07.774Z,3.07
2018-12-05T04:08:35.309Z,3.33
2018-12-05T04:11:03.476Z,2.63
2018-12-05T04:13:31.138Z,2.80
2018-12-05T04:15:59.035Z,3.03
2018-12-05T04:18:26.582Z,2.90
2018-12-05T04:20:54.363Z,3.60
2018-12-05T04:23:21.905Z,3.87
2018-12-05T04:25:49.899Z,3.13
2018-12-05T04:28:17.433Z,3.10
2018-12-05T04:30:45.166Z,2.97
2018-12-05T04:33:12.708Z,2.97
2018-12-05T04:35:40.240Z,3.60
2018-12-05T04:38:08.001Z,3.10
2018-12-05T04:40:35.602Z,3.80
2018-12-05T04:43:03.408Z,3.43
2018-12-05T04:45:30.962Z,3.53
2018-12-05T04:47:58.848Z,3.50
2018-12-05T04:50:27.114Z,2.60
2018-12-05T04:52:54.768Z,3.47
2018-12-05T04:55:23.215Z,2.80
2018-12-05T04:57:50.772Z,4.27
2018-12-05T05:00:19.822Z,3.63
2018-12-05T05:02:47.362Z,3.20
2018-12-05T05:05:16.054Z,3.50
2018-12-05T05:07:43.824Z,2.70
2018-12-05T05:10:13.682Z,5.03
2018-12-05T05:12:41.816Z,4.50
2018-12-05T05:15:09.346Z,5.27
2018-12-05T05:17:37.338Z,3.80
2018-12-05T05:20:04.967Z,3.80
2018-12-05T05:22:33.211Z,2.87
2018-12-05T05:25:00.748Z,4.83
2018-12-05T05:27:28.676Z,2.90
2018-12-05T05:29:56.254Z,4.00
2018-12-05T05:32:24.138Z,18.37
2018-12-05T05:34:51.682Z,30.03
2018-12-05T05:37:19.470Z,7.63
2018-12-05T05:39:47.008Z,4.93
2018-12-05T05:42:14.780Z,4.13
2018-12-05T05:44:42.326Z,3.60
2018-12-05T05:47:10.516Z,4.57
2018-12-05T05:49:38.070Z,4.00
2018-12-05T05:52:05.725Z,6.07
2018-12-05T05:54:33.263Z,12.87
2018-12-05T05:57:01.436Z,13.17
2018-12-05T05:59:28.960Z,12.03
2018-12-05T06:01:57.166Z,10.80
2018-12-05T06:04:24.710Z,10.17
2018-12-05T06:06:53.207Z,7.87
2018-12-05T06:09:20.883Z,8.40
2018-12-05T06:11:48.991Z,11.40
2018-12-05T06:14:16.533Z,8.20
2018-12-05T06:16:44.481Z,5.77
2018-12-05T06:19:12.155Z,5.50
2018-12-05T06:21:39.679Z,5.20
2018-12-05T06:24:07.701Z,4.37
2018-12-05T06:26:35.248Z,5.13
2018-12-05T06:29:03.236Z,5.77
2018-12-05T06:31:30.773Z,5.00
2018-12-05T06:33:59.815Z,5.90
2018-12-05T06:36:27.349Z,4.93
2018-12-05T06:38:55.065Z,4.90
2018-12-05T06:41:22.614Z,7.37
2018-12-05T06:43:50.841Z,11.60
2018-12-05T06:46:18.375Z,11.23
2018-12-05T06:48:46.193Z,11.13
2018-12-05T06:51:13.717Z,13.07
2018-12-05T06:53:41.495Z,12.93
2018-12-05T06:56:09.042Z,6.43
2018-12-05T06:58:37.023Z,6.33
2018-12-05T07:01:04.631Z,4.30
2018-12-05T07:03:32.573Z,3.63
2018-12-05T07:06:00.359Z,4.67
2018-12-05T07:08:28.076Z,4.40
2018-12-05T07:10:55.617Z,4.70
2018-12-05T07:13:23.377Z,5.20
2018-12-05T07:15:50.911Z,4.03
2018-12-05T07:18:19.315Z,4.40
2018-12-05T07:20:47.355Z,5.90
2018-12-05T07:23:16.533Z,4.40
2018-12-05T07:25:44.072Z,4.50
2018-12-05T07:28:12.033Z,4.67
2018-12-05T07:30:39.575Z,5.80
2018-12-05T07:33:07.735Z,4.60
2018-12-05T07:35:35.321Z,4.83
2018-12-05T07:38:02.873Z,3.87
2018-12-05T07:40:31.049Z,4.37
2018-12-05T07:42:58.596Z,3.43
2018-12-05T07:45:26.969Z,3.83
2018-12-05T07:47:56.349Z,3.33
2018-12-05T07:50:24.552Z,4.20
2018-12-05T07:52:52.079Z,5.00
2018-12-05T07:55:19.917Z,6.90
2018-12-05T07:57:47.461Z,7.07
2018-12-05T08:00:15.783Z,7.93
2018-12-05T08:02:43.313Z,9.43
2018-12-05T08:05:11.312Z,8.73
2018-12-05T08:07:40.409Z,9.47
2018-12-05T08:10:08.563Z,7.30
2018-12-05T08:12:36.095Z,9.80
2018-12-05T08:15:04.553Z,7.37
2018-12-05T08:17:32.271Z,9.57
2018-12-05T08:20:00.030Z,7.70
2018-12-05T08:22:27.862Z,9.03
2018-12-05T08:24:55.818Z,7.33
2018-12-05T08:27:23.417Z,7.80
2018-12-05T08:29:51.338Z,6.60
2018-12-05T08:32:18.974Z,9.90
2018-12-05T08:34:46.881Z,8.13
2018-12-05T08:37:14.420Z,6.53
2018-12-05T08:39:42.398Z,8.53
2018-12-05T08:42:09.934Z,8.40
2018-12-05T08:44:38.098Z,8.10
2018-12-05T08:47:05.632Z,9.53
2018-12-05T08:49:33.454Z,11.07
2018-12-05T08:52:01.156Z,11.27
2018-12-05T08:54:29.393Z,8.20
2018-12-05T08:56:56.925Z,8.80
2018-12-05T08:59:24.458Z,8.50
2018-12-05T09:01:52.582Z,8.57
2018-12-05T09:04:20.120Z,7.60
2018-12-05T09:06:48.002Z,9.00
2018-12-05T09:09:15.550Z,8.77
2018-12-05T09:11:43.651Z,8.13
2018-12-05T09:14:11.194Z,8.40
2018-12-05T09:16:38.970Z,7.20
2018-12-05T09:19:06.518Z,8.17
2018-12-05T09:21:34.469Z,7.17
2018-12-05T09:24:02.208Z,8.17
2018-12-05T09:26:30.033Z,9.30
2018-12-05T09:28:57.591Z,9.20
2018-12-05T09:31:25.560Z,10.10
2018-12-05T09:33:53.100Z,8.40
2018-12-05T09:36:21.075Z,9.03
2018-12-05T09:38:48.630Z,8.97
2018-12-05T09:41:16.612Z,9.53
2018-12-05T09:43:44.158Z,9.30
2018-12-05T09:46:12.126Z,8.03
2018-12-05T09:48:39.696Z,8.70
2018-12-05T09:51:07.448Z,10.00
2018-12-05T09:53:35.082Z,11.87
2018-12-05T09:56:03.192Z,9.40
2018-12-05T09:58:30.718Z,10.20
2018-12-05T10:00:58.838Z,8.13
2018-12-05T10:03:26.694Z,9.13
2018-12-05T10:05:54.504Z,11.67
2018-12-05T10:08:22.422Z,8.73
2018-12-05T10:10:50.590Z,8.50
2018-12-05T10:13:18.574Z,8.23
2018-12-05T10:15:46.127Z,8.37
2018-12-05T10:18:13.956Z,7.33
2018-12-05T10:20:41.501Z,7.27
2018-12-05T10:23:09.274Z,8.20
2018-12-05T10:25:36.806Z,7.80
2018-12-05T10:28:04.642Z,7.43
2018-12-05T10:30:32.163Z,8.00
2018-12-05T10:33:00.401Z,11.03
2018-12-05T10:35:27.932Z,8.30
2018-12-05T10:37:56.004Z,13.10
2018-12-05T10:40:23.543Z,7.40
2018-12-05T10:42:51.321Z,8.70
2018-12-05T10:45:18.867Z,13.20
2018-12-05T10:47:46.963Z,11.80
2018-12-05T10:50:14.691Z,12.30
2018-12-05T10:52:42.367Z,10.17
2018-12-05T10:55:09.917Z,9.00
2018-12-05T10:57:37.707Z,7.37
2018-12-05T11:00:08.997Z,8.67
2018-12-05T11:02:42.663Z,8.80
2018-12-05T11:05:16.267Z,9.43
2018-12-05T11:07:51.048Z,8.27
2018-12-05T11:10:24.489Z,10.60
2018-12-05T11:12:57.660Z,11.83
2018-12-05T11:15:31.057Z,12.83
2018-12-05T11:18:04.839Z,12.60
2018-12-05T11:20:38.234Z,8.57
2018-12-05T11:23:12.279Z,7.00
2018-12-05T11:25:39.809Z,7.90
2018-12-05T11:28:07.811Z,6.83
2018-12-05T11:30:35.352Z,7.10
2018-12-05T11:33:03.228Z,7.63
2018-12-05T11:35:30.774Z,9.60
2018-12-05T11:37:58.659Z,9.03
2018-12-05T11:40:26.192Z,8.13
2018-12-05T11:42:54.039Z,8.40
2018-12-05T11:45:21.591Z,8.93
2018-12-05T11:47:49.416Z,7.33
2018-12-05T11:50:16.963Z,7.50
2018-12-05T11:52:44.967Z,7.93
2018-12-05T11:55:12.515Z,7.30
2018-12-05T11:57:40.452Z,7.93
2018-12-05T12:00:09.135Z,9.27
2018-12-05T12:02:37.439Z,8.33
2018-12-05T12:05:05.054Z,7.20
2018-12-05T12:07:33.159Z,7.33
2018-12-05T12:10:00.687Z,7.63
2018-12-05T12:12:34.424Z,7.40
2018-12-05T12:15:01.970Z,7.47
2018-12-05T12:17:30.109Z,7.27
2018-12-05T12:19:57.659Z,7.57
2018-12-05T12:22:25.514Z,7.40
2018-12-05T12:24:53.085Z,8.70
2018-12-05T12:27:21.022Z,7.80
2018-12-05T12:29:48.556Z,7.90
2018-12-05T12:32:16.138Z,7.87
2018-12-05T12:34:44.014Z,8.70
2018-12-05T12:37:11.584Z,8.13
2018-12-05T12:39:39.418Z,9.10
2018-12-05T12:42:07.155Z,8.27
2018-12-05T12:44:34.705Z,7.20
2018-12-05T12:47:02.498Z,8.93
2018-12-05T12:49:30.031Z,9.10
2018-12-05T12:51:57.998Z,7.67
2018-12-05T12:54:26.651Z,6.83
2018-12-05T12:56:54.929Z,6.90
2018-12-05T12:59:22.522Z,6.00
2018-12-05T13:01:50.591Z,6.30
2018-12-05T13:04:18.283Z,6.93
2018-12-05T13:06:46.261Z,7.10
2018-12-05T13:09:14.262Z,6.33
2018-12-05T13:11:41.795Z,6.40
2018-12-05T13:14:09.931Z,6.37
2018-12-05T13:16:37.471Z,5.80
2018-12-05T13:19:05.282Z,6.17
2018-12-05T13:21:32.844Z,5.57
2018-12-05T13:24:00.818Z,5.43
2018-12-05T13:26:28.384Z,4.93
2018-12-05T13:28:56.338Z,3.90
2018-12-05T13:31:23.888Z,3.90
2018-12-05T13:33:51.664Z,4.70
2018-12-05T13:36:19.280Z,4.50
2018-12-05T13:38:47.568Z,9.60
2018-12-05T13:41:15.106Z,4.70
2018-12-05T13:43:42.923Z,4.70
2018-12-05T13:46:10.479Z,4.17
2018-12-05T13:48:38.281Z,6.60
2018-12-05T13:51:07.137Z,5.50
2018-12-05T13:53:35.183Z,5.40
2018-12-05T13:56:03.004Z,5.20
2018-12-05T13:58:31.164Z,6.83
2018-12-05T14:00:58.698Z,4.90
2018-12-05T14:03:26.514Z,5.23
2018-12-05T14:05:54.487Z,6.70
2018-12-05T14:08:22.420Z,6.07
2018-12-05T14:10:49.968Z,4.63
2018-12-05T14:13:17.746Z,5.50
2018-12-05T14:15:45.902Z,6.13
2018-12-05T14:18:13.893Z,5.53
2018-12-05T14:20:41.434Z,5.97
2018-12-05T14:23:08.978Z,5.40
2018-12-05T14:25:37.025Z,5.27
2018-12-05T14:28:04.576Z,4.40
2018-12-05T14:30:32.617Z,4.43
2018-12-05T14:33:00.636Z,5.20
2018-12-05T14:35:28.186Z,5.80
2018-12-05T14:37:56.165Z,4.30
2018-12-05T14:40:23.710Z,4.73
2018-12-05T14:42:51.938Z,3.63
2018-12-05T14:45:19.467Z,5.07
2018-12-05T14:47:47.292Z,4.13
2018-12-05T14:50:14.843Z,5.07
2018-12-05T14:52:42.823Z,4.80
2018-12-05T14:55:10.359Z,3.80
2018-12-05T14:57:38.257Z,4.30
2018-12-05T15:00:07.957Z,6.10
2018-12-05T15:02:35.887Z,8.30
2018-12-05T15:05:04.433Z,7.90
2018-12-05T15:07:32.657Z,8.90
2018-12-05T15:10:00.222Z,8.87
2018-12-05T15:12:28.766Z,6.97
2018-12-05T15:14:56.358Z,7.20
2018-12-05T15:17:24.118Z,5.10
2018-12-05T15:19:51.680Z,5.40
2018-12-05T15:22:19.440Z,13.57
2018-12-05T15:24:46.985Z,10.70
2018-12-05T15:27:16.198Z,10.73
2018-12-05T15:29:43.826Z,9.93
2018-12-05T15:32:11.733Z,9.40
2018-12-05T15:34:40.788Z,5.13
2018-12-05T15:37:08.829Z,4.80
2018-12-05T15:39:36.398Z,4.40
2018-12-05T15:42:05.450Z,4.03
2018-12-05T15:44:33.002Z,4.17
2018-12-05T15:47:00.771Z,3.60
2018-12-05T15:49:29.025Z,2.77
2018-12-05T15:51:57.142Z,2.93
2018-12-05T15:54:24.664Z,2.27
2018-12-05T15:56:52.605Z,3.27
2018-12-05T15:59:20.266Z,4.13
2018-12-05T16:01:48.172Z,3.70
2018-12-05T16:04:15.713Z,3.97
2018-12-05T16:06:44.108Z,5.07
2018-12-05T16:09:11.659Z,3.37
2018-12-05T16:11:39.838Z,3.90
2018-12-05T16:14:07.414Z,2.57
2018-12-05T16:16:35.207Z,4.20
2018-12-05T16:19:02.756Z,6.60
2018-12-05T16:21:30.506Z,6.67
2018-12-05T16:23:58.317Z,4.60
2018-12-05T16:26:26.508Z,3.80
2018-12-05T16:28:54.054Z,3.37
2018-12-05T16:31:22.120Z,4.00
2018-12-05T16:33:49.716Z,4.50
2018-12-05T16:36:17.580Z,3.40
2018-12-05T16:38:45.330Z,4.43
2018-12-05T16:41:12.880Z,4.90
2018-12-05T16:43:40.776Z,5.07
2018-12-05T16:46:08.852Z,5.03
2018-12-05T16:48:36.393Z,6.27
2018-12-05T16:51:03.934Z,4.90
2018-12-05T16:53:31.835Z,5.23
2018-12-05T16:55:59.379Z,8.27
2018-12-05T16:58:27.363Z,6.47
2018-12-05T17:00:54.908Z,6.93
2018-12-05T17:03:22.895Z,4.40
2018-12-05T17:05:50.496Z,4.70
2018-12-05T17:08:19.066Z,5.37
2018-12-05T17:10:46.614Z,5.97
2018-12-05T17:13:14.432Z,5.60
2018-12-05T17:15:41.992Z,5.40
2018-12-05T17:18:09.804Z,4.33
2018-12-05T17:20:37.339Z,4.80
2018-12-05T17:23:05.112Z,5.37
2018-12-05T17:25:32.642Z,6.60
2018-12-05T17:28:00.526Z,8.20
2018-12-05T17:30:28.160Z,9.27
2018-12-05T17:32:55.967Z,7.20
2018-12-05T17:35:23.684Z,5.90
2018-12-05T17:37:51.385Z,6.50
2018-12-05T17:40:18.923Z,6.33
2018-12-05T17:42:46.888Z,7.20
2018-12-05T17:45:14.425Z,7.13
2018-12-05T17:47:43.300Z,6.93
2018-12-05T17:50:11.116Z,8.30
2018-12-05T17:52:38.842Z,10.10
2018-12-05T17:55:06.470Z,12.23
2018-12-05T17:57:34.418Z,13.73
2018-12-05T18:00:02.186Z,41.20
2018-12-05T18:02:30.324Z,37.57
2018-12-05T18:04:58.085Z,20.23
2018-12-05T18:07:25.635Z,30.10
2018-12-05T18:09:53.869Z,51.50
2018-12-05T18:12:21.411Z,32.57
2018-12-05T18:14:49.589Z,24.23
2018-12-05T18:17:17.130Z,37.17
2018-12-05T18:19:45.875Z,33.17
2018-12-05T18:22:13.430Z,19.80
2018-12-05T18:24:41.263Z,15.70
2018-12-05T18:27:08.839Z,14.43
2018-12-05T18:29:36.815Z,13.30
2018-12-05T18:32:04.433Z,11.63
2018-12-05T18:34:32.185Z,10.47
2018-12-05T18:36:59.734Z,9.87
2018-12-05T18:39:27.453Z,8.40
2018-12-05T18:41:54.992Z,7.43
2018-12-05T18:44:22.756Z,9.63
2018-12-05T18:46:50.318Z,7.17
2018-12-05T18:49:18.063Z,9.07
2018-12-05T18:51:45.603Z,8.07
2018-12-05T18:54:13.579Z,8.23
2018-12-05T18:56:41.147Z,9.20
2018-12-05T18:59:08.956Z,10.90
2018-12-05T19:01:36.526Z,9.40
2018-12-05T19:04:04.365Z,8.60
2018-12-05T19:06:32.554Z,8.33
2018-12-05T19:09:00.158Z,8.17
2018-12-05T19:11:28.080Z,7.33
2018-12-05T19:14:01.565Z,6.57
2018-12-05T19:16:29.538Z,6.37
2018-12-05T19:18:57.910Z,7.33
2018-12-05T19:21:25.570Z,6.07
2018-12-05T19:23:53.541Z,7.40
2018-12-05T19:26:21.449Z,7.73
2018-12-05T19:28:49.003Z,9.67
2018-12-05T19:31:19.535Z,9.67
2018-12-05T19:33:46.516Z,8.10
2018-12-05T19:36:14.474Z,7.73
2018-12-05T19:38:42.014Z,9.17
2018-12-05T19:41:09.840Z,11.00
2018-12-05T19:43:37.388Z,11.30
2018-12-05T19:46:05.384Z,10.37
2018-12-05T19:48:32.990Z,11.13
2018-12-05T19:51:00.892Z,8.23
2018-12-05T19:53:28.464Z,8.97
2018-12-05T19:55:56.633Z,11.20
2018-12-05T19:58:24.186Z,8.30
2018-12-05T20:00:52.651Z,8.87
2018-12-05T20:03:20.646Z,9.53
2018-12-05T20:05:48.196Z,8.57
2018-12-05T20:08:15.974Z,8.13
2018-12-05T20:10:43.513Z,8.73
2018-12-05T20:13:11.656Z,8.20
2018-12-05T20:15:39.213Z,8.97
2018-12-05T20:18:07.022Z,9.03
2018-12-05T20:20:34.582Z,7.70
2018-12-05T20:23:02.753Z,9.20
2018-12-05T20:25:30.307Z,9.17
2018-12-05T20:27:58.946Z,8.67
2018-12-05T20:30:26.716Z,9.37
2018-12-05T20:32:54.624Z,9.10
2018-12-05T20:35:22.496Z,9.40
2018-12-05T20:37:50.052Z,9.60
2018-12-05T20:40:18.020Z,9.70
2018-12-05T20:42:45.914Z,9.83
2018-12-05T20:45:13.962Z,9.97
2018-12-05T20:47:41.507Z,9.10
2018-12-05T20:50:09.126Z,10.83
2018-12-05T20:52:37.166Z,9.73
2018-12-05T20:55:04.900Z,9.90
2018-12-05T20:57:32.478Z,8.87
2018-12-05T21:00:00.139Z,8.63
2018-12-05T21:02:27.677Z,9.43
2018-12-05T21:04:56.024Z,8.80
2018-12-05T21:07:23.965Z,9.10
2018-12-05T21:09:51.525Z,11.63
2018-12-05T21:12:20.734Z,10.27
2018-12-05T21:14:48.261Z,10.30
2018-12-05T21:17:16.251Z,9.30
2018-12-05T21:19:44.392Z,9.77
2018-12-05T21:22:11.940Z,9.83
2018-12-05T21:24:39.817Z,9.77
2018-12-05T21:27:09.271Z,9.73
2018-12-05T21:29:36.981Z,9.30
2018-12-05T21:32:04.512Z,9.07
2018-12-05T21:34:32.923Z,9.53
2018-12-05T21:37:00.489Z,9.87
2018-12-05T21:39:58.778Z,11.00
2018-12-05T21:42:26.410Z,9.83
2018-12-05T21:44:54.644Z,9.77
2018-12-05T21:47:22.174Z,11.63
2018-12-05T21:49:49.891Z,10.67
2018-12-05T21:52:17.668Z,10.60
2018-12-05T21:54:45.208Z,9.50
2018-12-05T21:57:13.059Z,8.80
2018-12-05T21:59:41.046Z,10.53
2018-12-05T22:02:09.111Z,10.60
2018-12-05T22:04:37.019Z,12.57
2018-12-05T22:07:04.554Z,10.20
2018-12-05T22:09:32.714Z,10.80
2018-12-05T22:12:00.253Z,9.90
2018-12-05T22:14:28.183Z,11.07
2018-12-05T22:16:55.774Z,10.30
2018-12-05T22:19:24.012Z,12.50
2018-12-05T22:21:51.537Z,9.57
2018-12-05T22:24:19.338Z,12.70
2018-12-05T22:26:46.894Z,10.30
2018-12-05T22:29:14.879Z,12.00
2018-12-05T22:31:42.419Z,9.80
2018-12-05T22:34:10.623Z,11.27
2018-12-05T22:36:38.157Z,11.43
2018-12-05T22:39:07.175Z,10.40
2018-12-05T22:41:34.734Z,11.30
2018-12-05T22:44:02.684Z,10.23
2018-12-05T22:46:30.233Z,11.47
2018-12-05T22:48:58.005Z,11.37
2018-12-05T22:51:25.559Z,9.63
2018-12-05T22:53:53.340Z,11.30
2018-12-05T22:56:21.040Z,11.03
2018-12-05T22:58:48.864Z,10.57
2018-12-05T23:01:16.416Z,10.40
2018-12-05T23:03:44.985Z,10.20
2018-12-05T23:06:12.543Z,10.70
2018-12-05T23:08:40.620Z,11.23
2018-12-05T23:11:08.164Z,10.23
2018-12-05T23:13:37.460Z,11.37
2018-12-05T23:16:05.234Z,10.00
2018-12-05T23:18:34.464Z,10.70
2018-12-05T23:21:01.997Z,9.53
2018-12-05T23:23:29.776Z,10.50
2018-12-05T23:25:57.330Z,11.80
2018-12-05T23:28:25.107Z,10.30
2018-12-05T23:30:52.674Z,10.17
2018-12-05T23:33:21.171Z,11.23
2018-12-05T23:35:48.930Z,10.37
2018-12-05T23:38:17.418Z,9.70
2018-12-05T23:40:45.239Z,10.00
2018-12-05T23:43:12.780Z,10.10
2018-12-05T23:45:40.353Z,10.80
2018-12-05T23:48:08.085Z,10.20
2018-12-05T23:50:35.905Z,9.13
2018-12-05T23:53:03.517Z,9.83
2018-12-05T23:55:31.385Z,9.97
2018-12-05T23:58:00.679Z,8.27
